Pagrindinis puslapis
METAR-TAF:

METAR-TAF

Oro uostai :

Murmanskas, Rusija

platuma: 68-58N, ilguma: 033-03E, Aukštis: 51 m

Dabartinis oras

Ataskaita buvo paskelbta 11 minutes, ne 09:00 UTC
Vėjas 4 kt iš Pietų
Temperatūra -4°C
Drėgmė 100%
Slėgis 1005 hPa
Matomumas 10 km arba daugiau
Mažai debesys ne aukštis 2000 ft

METAR: ULMM 070900Z 17002MPS 9999 FEW020 M04/M04 Q1005 R13/690050 NOSIG RMK QFE747

Laikas: 12:11 (09:11 UTC)

Prognozė

Ataskaita buvo paskelbta 1 valandą ir 21 minutes, ne 07:50 UTC
Prognozė galioja nuo 07 metu 09 UTC su 08 metu 09 UTC
Vėjas 6 kt iš Pietų
Matomumas: 6000 m
Su prošvaistėmis ne aukštis 1600 ft, Liūtiniai kamuoliniai debesys.
sniegas

TAF: ULMM 070750Z 0709/0809 19003MPS 6000 -SHSN BKN016CB

Orai ataskaitas ir orų prognozės (METAR, TAF).

turimą stotys yra geltonos ir raudonos taškus žemėlapyje.

Perkelti pele per norėdami pamatyti stoties vardą.

Tada spustelėkite, norėdami matyti oro stebėjimo ir prognozės.

Norėdami pakeisti žemėlapį: spustelėkite ant žalios mygtukų su juodo kryžiaus žemyn,; žalią mygtuką su brūkšneliu, jei norite nutolinti; arba žalių rodyklių gretimoms žemėlapius.


METAR-TAF: